Time;durP1;ratioP1;P1;durP2;ratioP2;P2;SDS_P1;SDS_P2;PMS_P1;PMS_P2;Temp;Humidity;BMP_temperature;BMP_pressure;BME280_temperature;BME280_humidity;BME280_pressure;Samples;Min_cycle;Max_cycle;Signal;HPM_P1;HPM_P2
2021/07/31 00:01:07;;;;;;;16.80;8.47;;;;;;;;;;726875;191;919446;-68
2021/07/31 00:03:32;;;;;;;23.73;8.40;;;;;;;;;;727449;191;915685;-69
2021/07/31 00:05:58;;;;;;;11.20;7.87;;;;;;;;;;731052;191;916249;-68
2021/07/31 00:08:23;;;;;;;14.83;7.90;;;;;;;;;;728426;191;915090;-69
2021/07/31 00:10:49;;;;;;;17.07;7.87;;;;;;;;;;726595;191;916896;-69
2021/07/31 00:13:15;;;;;;;9.20;6.43;;;;;;;;;;728763;191;916529;-68
2021/07/31 00:15:41;;;;;;;21.43;9.00;;;;;;;;;;726168;193;916312;-68
2021/07/31 00:18:07;;;;;;;10.03;8.57;;;;;;;;;;726359;192;919418;-68
2021/07/31 00:20:33;;;;;;;13.33;7.30;;;;;;;;;;727372;192;914859;-68
2021/07/31 00:22:58;;;;;;;16.03;7.17;;;;;;;;;;730040;191;918815;-68
2021/07/31 00:25:24;;;;;;;12.73;7.20;;;;;;;;;;725955;193;918980;-68
2021/07/31 00:27:50;;;;;;;13.43;7.00;;;;;;;;;;726974;192;919595;-68
2021/07/31 00:30:16;;;;;;;11.77;7.40;;;;;;;;;;731230;192;919348;-69
2021/07/31 00:32:42;;;;;;;12.43;7.63;;;;;;;;;;726835;191;1020743;-68
2021/07/31 00:35:08;;;;;;;12.00;8.50;;;;;;;;;;728369;192;919473;-70
2021/07/31 00:37:34;;;;;;;13.43;7.97;;;;;;;;;;731126;192;918496;-68
2021/07/31 00:40:00;;;;;;;11.48;7.35;;;;;;;;;;725194;193;919438;-69
2021/07/31 00:42:26;;;;;;;10.00;7.67;;;;;;;;;;726045;190;920323;-68
2021/07/31 00:44:52;;;;;;;9.97;7.87;;;;;;;;;;728566;190;918650;-68
2021/07/31 00:47:17;;;;;;;11.50;7.70;;;;;;;;;;729081;193;918858;-69
2021/07/31 00:49:43;;;;;;;14.30;7.90;;;;;;;;;;728764;191;921405;-68
2021/07/31 00:52:09;;;;;;;11.50;7.62;;;;;;;;;;729352;191;921561;-67
2021/07/31 00:54:35;;;;;;;15.27;8.20;;;;;;;;;;733189;192;919028;-69
2021/07/31 00:57:01;;;;;;;11.50;7.00;;;;;;;;;;727702;192;919480;-68
2021/07/31 00:59:27;;;;;;;11.30;7.70;;;;;;;;;;726253;192;919495;-68
2021/07/31 01:01:52;;;;;;;11.90;7.77;;;;;;;;;;733188;191;916351;-68
2021/07/31 01:04:18;;;;;;;11.17;8.07;;;;;;;;;;727179;192;915888;-68
2021/07/31 01:06:44;;;;;;;13.37;8.10;;;;;;;;;;727666;190;916943;-68
2021/07/31 01:09:10;;;;;;;12.67;8.30;;;;;;;;;;731389;192;915455;-68
2021/07/31 01:11:36;;;;;;;11.50;7.83;;;;;;;;;;724710;192;919595;-68
2021/07/31 01:14:01;;;;;;;12.30;8.30;;;;;;;;;;727729;192;920037;-68
2021/07/31 01:16:27;;;;;;;13.00;8.87;;;;;;;;;;728112;191;918731;-70
2021/07/31 01:18:53;;;;;;;11.50;7.47;;;;;;;;;;730409;192;919200;-68
2021/07/31 01:21:25;;;;;;;13.60;7.50;;;;;;;;;;725875;193;918672;-68
2021/07/31 01:23:51;;;;;;;20.73;8.60;;;;;;;;;;725480;192;919110;-68
2021/07/31 01:26:17;;;;;;;26.73;8.07;;;;;;;;;;731337;192;919676;-68
2021/07/31 01:28:42;;;;;;;17.40;7.77;;;;;;;;;;727133;191;918585;-68
2021/07/31 01:31:08;;;;;;;22.57;9.50;;;;;;;;;;726051;191;918260;-68
2021/07/31 01:33:34;;;;;;;13.47;8.00;;;;;;;;;;723957;192;1021127;-69
2021/07/31 01:36:00;;;;;;;21.87;9.03;;;;;;;;;;728619;193;919041;-68
2021/07/31 01:38:26;;;;;;;14.60;8.77;;;;;;;;;;727377;192;919230;-69
2021/07/31 01:40:52;;;;;;;17.73;8.95;;;;;;;;;;728395;192;919490;-68
2021/07/31 01:43:17;;;;;;;10.97;7.50;;;;;;;;;;729981;192;1021688;-68
2021/07/31 01:45:43;;;;;;;17.70;8.50;;;;;;;;;;724230;193;919309;-68
2021/07/31 01:48:09;;;;;;;17.30;7.90;;;;;;;;;;728496;192;919573;-70
2021/07/31 01:50:35;;;;;;;17.23;8.83;;;;;;;;;;731329;192;918645;-68
2021/07/31 01:53:01;;;;;;;19.27;8.73;;;;;;;;;;725827;192;918731;-68
2021/07/31 01:55:27;;;;;;;15.57;8.87;;;;;;;;;;728023;191;920740;-68
2021/07/31 01:57:52;;;;;;;15.20;8.63;;;;;;;;;;729866;191;918396;-69
2021/07/31 02:00:18;;;;;;;11.47;8.27;;;;;;;;;;733314;188;918366;-68
2021/07/31 02:02:44;;;;;;;17.03;7.43;;;;;;;;;;726955;191;919228;-68
2021/07/31 02:05:10;;;;;;;15.50;8.33;;;;;;;;;;729435;191;919114;-69
2021/07/31 02:07:36;;;;;;;19.53;9.33;;;;;;;;;;731696;192;924819;-68
2021/07/31 02:10:02;;;;;;;14.97;7.83;;;;;;;;;;727777;192;919196;-68
2021/07/31 02:12:28;;;;;;;16.87;9.90;;;;;;;;;;730148;190;919651;-68
2021/07/31 02:14:54;;;;;;;21.37;9.23;;;;;;;;;;733409;192;918791;-68
2021/07/31 02:17:19;;;;;;;10.20;8.27;;;;;;;;;;725400;191;918310;-67
2021/07/31 02:19:45;;;;;;;16.00;10.23;;;;;;;;;;726433;192;918974;-68
2021/07/31 02:22:11;;;;;;;13.73;10.23;;;;;;;;;;730718;192;918700;-68
2021/07/31 02:24:37;;;;;;;16.93;9.73;;;;;;;;;;727457;192;919488;-68
2021/07/31 02:27:03;;;;;;;17.37;8.73;;;;;;;;;;727276;192;918912;-69
2021/07/31 02:29:29;;;;;;;15.83;9.07;;;;;;;;;;726830;192;919132;-68
2021/07/31 02:31:55;;;;;;;18.70;9.57;;;;;;;;;;731029;192;924738;-68
2021/07/31 02:34:21;;;;;;;19.03;8.97;;;;;;;;;;725778;193;919691;-68
2021/07/31 02:36:46;;;;;;;18.13;8.63;;;;;;;;;;727138;192;919194;-68
2021/07/31 02:39:12;;;;;;;16.77;8.90;;;;;;;;;;730911;192;919442;-68
2021/07/31 02:41:38;;;;;;;21.30;8.47;;;;;;;;;;727603;192;919438;-69
2021/07/31 02:44:04;;;;;;;20.10;10.70;;;;;;;;;;726517;193;1020213;-68
2021/07/31 02:46:30;;;;;;;17.80;9.10;;;;;;;;;;730518;192;919252;-68
2021/07/31 02:48:57;;;;;;;23.50;9.13;;;;;;;;;;724919;193;919376;-69
2021/07/31 02:51:22;;;;;;;23.17;9.30;;;;;;;;;;723796;191;1021091;-68
2021/07/31 02:53:47;;;;;;;30.95;10.00;;;;;;;;;;725636;191;920842;-68
2021/07/31 02:56:13;;;;;;;28.33;9.27;;;;;;;;;;727397;191;918329;-68
2021/07/31 02:58:39;;;;;;;16.63;9.60;;;;;;;;;;727239;191;919723;-68
2021/07/31 03:01:05;;;;;;;25.43;10.67;;;;;;;;;;726255;191;928637;-68
2021/07/31 03:03:31;;;;;;;14.87;9.00;;;;;;;;;;732306;192;919116;-68
2021/07/31 03:05:57;;;;;;;16.37;8.87;;;;;;;;;;725906;192;919320;-69
2021/07/31 03:08:22;;;;;;;19.65;8.55;;;;;;;;;;726192;190;924688;-69
2021/07/31 03:10:52;;;;;;;20.60;9.40;;;;;;;;;;733242;191;919863;-69
2021/07/31 03:13:18;;;;;;;20.30;10.98;;;;;;;;;;728321;192;919339;-68
2021/07/31 03:15:44;;;;;;;19.47;9.97;;;;;;;;;;725161;191;918793;-68
2021/07/31 03:18:10;;;;;;;22.80;10.83;;;;;;;;;;727153;192;918565;-68
2021/07/31 03:20:36;;;;;;;17.13;10.90;;;;;;;;;;732162;190;922295;-69
2021/07/31 03:23:01;;;;;;;12.60;9.80;;;;;;;;;;725402;192;961441;-69
2021/07/31 03:25:27;;;;;;;22.80;11.50;;;;;;;;;;728355;189;919745;-69
2021/07/31 03:27:53;;;;;;;19.63;11.90;;;;;;;;;;731472;192;918780;-70
2021/07/31 03:30:19;;;;;;;13.80;10.37;;;;;;;;;;726941;191;919274;-68
2021/07/31 03:32:45;;;;;;;16.97;12.00;;;;;;;;;;726947;192;918575;-68
2021/07/31 03:35:11;;;;;;;16.40;10.03;;;;;;;;;;730611;190;919651;-68
2021/07/31 03:37:36;;;;;;;23.90;12.80;;;;;;;;;;728011;192;919193;-68
2021/07/31 03:40:02;;;;;;;21.58;12.13;;;;;;;;;;726389;192;919218;-68
2021/07/31 03:42:28;;;;;;;21.73;12.00;;;;;;;;;;727012;192;919715;-68
2021/07/31 03:44:54;;;;;;;17.87;12.80;;;;;;;;;;734878;188;918619;-68
2021/07/31 03:47:20;;;;;;;15.60;12.20;;;;;;;;;;725984;192;920232;-68
2021/07/31 03:49:46;;;;;;;20.50;13.87;;;;;;;;;;727461;192;933238;-69
2021/07/31 03:52:11;;;;;;;19.50;13.67;;;;;;;;;;731303;192;919426;-68
2021/07/31 03:54:37;;;;;;;22.07;14.67;;;;;;;;;;726550;191;918939;-68
2021/07/31 03:57:03;;;;;;;19.65;14.73;;;;;;;;;;727463;191;919425;-68
2021/07/31 03:59:29;;;;;;;21.53;14.97;;;;;;;;;;731123;192;920405;-68
2021/07/31 04:01:56;;;;;;;21.37;14.50;;;;;;;;;;726051;193;918799;-68
2021/07/31 04:04:21;;;;;;;20.00;15.40;;;;;;;;;;725473;191;919213;-68
2021/07/31 04:06:47;;;;;;;19.90;15.43;;;;;;;;;;730181;192;919040;-68
2021/07/31 04:09:12;;;;;;;20.93;16.17;;;;;;;;;;725281;191;919386;-68
2021/07/31 04:11:38;;;;;;;19.47;13.87;;;;;;;;;;727006;192;968919;-68
2021/07/31 04:14:04;;;;;;;22.40;15.00;;;;;;;;;;725214;192;925702;-67
2021/07/31 04:16:30;;;;;;;24.90;14.73;;;;;;;;;;727238;193;919897;-69
2021/07/31 04:18:56;;;;;;;25.20;15.10;;;;;;;;;;723753;192;919465;-69
2021/07/31 04:21:22;;;;;;;20.00;14.17;;;;;;;;;;727885;192;923281;-67
2021/07/31 04:23:48;;;;;;;22.30;15.10;;;;;;;;;;734315;191;919423;-68
2021/07/31 04:26:13;;;;;;;25.40;16.27;;;;;;;;;;726341;191;1124259;-67
2021/07/31 04:28:39;;;;;;;20.17;15.23;;;;;;;;;;727378;190;919980;-67
2021/07/31 04:31:05;;;;;;;28.47;13.57;;;;;;;;;;732027;192;918730;-67
2021/07/31 04:33:31;;;;;;;17.23;14.20;;;;;;;;;;726451;191;918779;-69
2021/07/31 04:35:57;;;;;;;22.57;14.90;;;;;;;;;;727783;192;919346;-69
2021/07/31 04:38:24;;;;;;;17.52;13.07;;;;;;;;;;729444;192;919147;-68
2021/07/31 04:40:50;;;;;;;16.37;13.63;;;;;;;;;;734411;188;918884;-67
2021/07/31 04:43:16;;;;;;;20.03;13.27;;;;;;;;;;725214;192;919713;-67
2021/07/31 04:45:42;;;;;;;23.47;15.17;;;;;;;;;;727561;190;907401;-65
2021/07/31 04:48:07;;;;;;;18.10;12.80;;;;;;;;;;731719;191;988545;-67
2021/07/31 04:50:33;;;;;;;20.60;14.20;;;;;;;;;;727948;191;918986;-67
2021/07/31 04:52:59;;;;;;;18.07;12.80;;;;;;;;;;726479;191;927463;-67
2021/07/31 04:55:25;;;;;;;21.80;14.37;;;;;;;;;;730767;191;920004;-66
2021/07/31 04:57:51;;;;;;;15.07;12.73;;;;;;;;;;724539;190;919071;-66
2021/07/31 05:00:17;;;;;;;25.10;13.63;;;;;;;;;;726456;191;919879;-67
2021/07/31 05:02:43;;;;;;;16.12;13.40;;;;;;;;;;730964;191;918091;-67
2021/07/31 05:05:09;;;;;;;16.43;11.27;;;;;;;;;;726446;190;918295;-67
2021/07/31 05:07:35;;;;;;;31.33;12.13;;;;;;;;;;725609;191;970445;-67
2021/07/31 05:10:01;;;;;;;16.40;11.60;;;;;;;;;;727049;192;919923;-67
2021/07/31 05:12:27;;;;;;;16.93;11.87;;;;;;;;;;732847;191;918540;-67
2021/07/31 05:14:52;;;;;;;16.97;12.70;;;;;;;;;;728078;192;918449;-67
2021/07/31 05:17:20;;;;;;;14.57;11.80;;;;;;;;;;725868;191;919400;-67
2021/07/31 05:19:44;;;;;;;14.87;11.70;;;;;;;;;;731513;190;919151;-66
2021/07/31 05:22:10;;;;;;;15.13;12.20;;;;;;;;;;728538;190;915774;-67
2021/07/31 05:24:36;;;;;;;13.93;11.57;;;;;;;;;;726022;191;919331;-68
2021/07/31 05:27:02;;;;;;;13.10;10.27;;;;;;;;;;730779;192;1021174;-67
2021/07/31 05:29:28;;;;;;;12.47;10.40;;;;;;;;;;726209;191;919483;-66
2021/07/31 05:31:53;;;;;;;12.57;10.80;;;;;;;;;;729017;190;916226;-67
2021/07/31 05:34:19;;;;;;;18.53;11.00;;;;;;;;;;727600;191;916320;-66
2021/07/31 05:36:45;;;;;;;11.00;9.23;;;;;;;;;;735133;190;919261;-67
2021/07/31 05:39:11;;;;;;;13.30;10.83;;;;;;;;;;726470;189;920160;-67
2021/07/31 05:41:37;;;;;;;15.17;9.40;;;;;;;;;;725404;191;1070859;-67
2021/07/31 05:44:03;;;;;;;14.47;9.57;;;;;;;;;;731454;191;914105;-67
2021/07/31 05:46:29;;;;;;;15.37;11.17;;;;;;;;;;726928;190;913492;-67
2021/07/31 05:48:54;;;;;;;11.77;9.60;;;;;;;;;;727632;190;922937;-67
2021/07/31 05:51:20;;;;;;;15.87;11.20;;;;;;;;;;732687;192;914067;-67
2021/07/31 05:53:46;;;;;;;12.20;9.77;;;;;;;;;;725391;190;1024915;-67
2021/07/31 05:56:12;;;;;;;12.27;10.17;;;;;;;;;;725784;191;918916;-67
2021/07/31 05:58:38;;;;;;;12.50;11.00;;;;;;;;;;731793;192;918854;-67
2021/07/31 06:01:05;;;;;;;15.70;10.60;;;;;;;;;;714147;195;919899;-67
2021/07/31 06:03:30;;;;;;;12.00;9.67;;;;;;;;;;724440;190;919316;-67
2021/07/31 06:05:56;;;;;;;12.57;9.73;;;;;;;;;;725450;192;918357;-68
2021/07/31 06:08:22;;;;;;;13.80;10.13;;;;;;;;;;731846;192;916999;-67
2021/07/31 06:10:48;;;;;;;12.27;10.40;;;;;;;;;;725378;190;918890;-67
2021/07/31 06:13:14;;;;;;;10.80;9.60;;;;;;;;;;726113;191;954417;-67
2021/07/31 06:15:41;;;;;;;11.50;10.30;;;;;;;;;;731829;192;918924;-66
2021/07/31 06:18:05;;;;;;;13.43;10.53;;;;;;;;;;727503;192;919213;-67
2021/07/31 06:20:31;;;;;;;17.17;10.37;;;;;;;;;;726379;192;919122;-68
2021/07/31 06:22:57;;;;;;;11.63;10.40;;;;;;;;;;729804;192;919090;-68
2021/07/31 06:25:23;;;;;;;16.60;11.33;;;;;;;;;;728379;193;919165;-68
2021/07/31 06:27:49;;;;;;;14.43;10.40;;;;;;;;;;726613;191;941768;-68
2021/07/31 06:30:15;;;;;;;17.63;10.80;;;;;;;;;;727781;192;918991;-67
2021/07/31 06:32:40;;;;;;;16.97;8.87;;;;;;;;;;729874;192;919372;-68
2021/07/31 06:35:07;;;;;;;14.20;9.77;;;;;;;;;;727189;191;918569;-67
2021/07/31 06:37:33;;;;;;;12.70;9.23;;;;;;;;;;726402;191;919250;-67
2021/07/31 06:39:58;;;;;;;11.07;9.07;;;;;;;;;;730709;192;919525;-67
2021/07/31 06:42:24;;;;;;;13.80;10.20;;;;;;;;;;727488;191;920005;-66
2021/07/31 06:44:50;;;;;;;11.70;9.80;;;;;;;;;;727269;191;920363;-67
2021/07/31 06:47:16;;;;;;;13.57;9.20;;;;;;;;;;732799;192;918015;-66
2021/07/31 06:49:42;;;;;;;12.10;9.10;;;;;;;;;;727679;191;920449;-67
2021/07/31 06:52:08;;;;;;;11.70;9.33;;;;;;;;;;727023;191;916870;-67
2021/07/31 06:54:34;;;;;;;11.53;9.30;;;;;;;;;;727365;192;923530;-66
2021/07/31 06:57:00;;;;;;;13.67;8.10;;;;;;;;;;735984;190;916008;-66
2021/07/31 06:59:25;;;;;;;9.83;8.37;;;;;;;;;;726596;189;919153;-66
2021/07/31 07:01:51;;;;;;;11.50;8.23;;;;;;;;;;725905;191;918527;-67
2021/07/31 07:04:17;;;;;;;12.10;7.53;;;;;;;;;;728975;192;1020783;-65
2021/07/31 07:06:43;;;;;;;14.93;8.27;;;;;;;;;;726736;192;919268;-66
2021/07/31 07:09:09;;;;;;;9.68;7.28;;;;;;;;;;725872;192;1021275;-67
2021/07/31 07:11:35;;;;;;;16.87;7.90;;;;;;;;;;730953;190;1021394;-66
2021/07/31 07:14:00;;;;;;;11.00;9.50;;;;;;;;;;726799;190;919353;-68
2021/07/31 07:16:26;;;;;;;10.00;7.53;;;;;;;;;;725207;192;918943;-66
2021/07/31 07:18:52;;;;;;;8.30;7.40;;;;;;;;;;730600;192;918885;-67
2021/07/31 07:21:18;;;;;;;10.73;7.80;;;;;;;;;;726442;192;1018859;-66
2021/07/31 07:23:44;;;;;;;10.53;8.17;;;;;;;;;;726791;192;919386;-66
2021/07/31 07:26:10;;;;;;;9.67;6.50;;;;;;;;;;726883;192;919116;-67
2021/07/31 07:28:35;;;;;;;11.90;7.50;;;;;;;;;;729553;193;919416;-66
2021/07/31 07:31:01;;;;;;;6.97;6.10;;;;;;;;;;726294;191;922849;-66
2021/07/31 07:33:27;;;;;;;9.30;7.00;;;;;;;;;;725164;193;1023026;-66
2021/07/31 07:35:53;;;;;;;11.40;6.70;;;;;;;;;;730059;192;919238;-65
2021/07/31 07:38:19;;;;;;;13.13;7.40;;;;;;;;;;725962;192;919719;-66
2021/07/31 07:40:45;;;;;;;8.33;7.10;;;;;;;;;;726213;192;919206;-66
2021/07/31 07:43:10;;;;;;;9.82;7.28;;;;;;;;;;730737;192;919446;-66
2021/07/31 07:45:36;;;;;;;9.00;7.20;;;;;;;;;;725926;192;919451;-66
2021/07/31 07:48:02;;;;;;;8.95;7.55;;;;;;;;;;725257;192;919312;-67
2021/07/31 07:50:29;;;;;;;7.15;6.20;;;;;;;;;;728527;190;953927;-66
2021/07/31 07:52:55;;;;;;;9.03;7.20;;;;;;;;;;735479;189;625290;-65
2021/07/31 07:55:20;;;;;;;8.47;7.00;;;;;;;;;;724016;192;932753;-66
2021/07/31 07:57:46;;;;;;;8.37;7.20;;;;;;;;;;723066;192;919624;-66
2021/07/31 08:00:12;;;;;;;9.97;6.63;;;;;;;;;;733039;191;919178;-66
2021/07/31 08:02:38;;;;;;;10.93;7.20;;;;;;;;;;729011;191;918380;-66
2021/07/31 08:05:04;;;;;;;8.60;7.03;;;;;;;;;;728115;191;920802;-66
2021/07/31 08:07:30;;;;;;;10.17;7.53;;;;;;;;;;731922;191;918881;-67
2021/07/31 08:09:56;;;;;;;11.47;7.07;;;;;;;;;;727084;191;918351;-66
2021/07/31 08:12:22;;;;;;;9.83;8.27;;;;;;;;;;728558;191;919667;-67
2021/07/31 08:14:48;;;;;;;7.73;6.60;;;;;;;;;;731253;192;919932;-66
2021/07/31 08:17:14;;;;;;;7.23;6.43;;;;;;;;;;724428;192;919779;-65
2021/07/31 08:19:39;;;;;;;8.07;6.50;;;;;;;;;;729245;191;918673;-66
2021/07/31 08:22:05;;;;;;;11.70;6.67;;;;;;;;;;726652;191;919197;-66
2021/07/31 08:24:31;;;;;;;8.33;7.10;;;;;;;;;;732231;192;918801;-68
2021/07/31 08:26:57;;;;;;;7.70;6.53;;;;;;;;;;726657;192;919964;-65
2021/07/31 08:29:23;;;;;;;8.93;6.80;;;;;;;;;;725211;191;1009264;-69
2021/07/31 08:31:49;;;;;;;10.93;7.40;;;;;;;;;;732274;190;905631;-65
2021/07/31 08:34:15;;;;;;;7.70;6.37;;;;;;;;;;727265;191;970977;-65
2021/07/31 08:36:40;;;;;;;6.77;5.53;;;;;;;;;;724734;191;918781;-66
2021/07/31 08:39:06;;;;;;;9.93;6.83;;;;;;;;;;729383;191;1239597;-65
2021/07/31 08:41:33;;;;;;;8.70;6.30;;;;;;;;;;728289;191;1122076;-65
2021/07/31 08:43:58;;;;;;;7.33;6.17;;;;;;;;;;726671;192;918773;-65
2021/07/31 08:46:24;;;;;;;10.17;5.83;;;;;;;;;;725816;193;914845;-65
2021/07/31 08:48:50;;;;;;;9.27;6.30;;;;;;;;;;734888;190;916101;-65
2021/07/31 08:51:16;;;;;;;6.53;5.63;;;;;;;;;;725873;190;916539;-66
2021/07/31 08:53:41;;;;;;;9.50;5.70;;;;;;;;;;724490;193;1017912;-66
2021/07/31 08:56:07;;;;;;;7.40;6.33;;;;;;;;;;731579;192;914982;-67
2021/07/31 08:58:33;;;;;;;10.37;6.80;;;;;;;;;;730487;192;919500;-66
2021/07/31 09:00:59;;;;;;;10.13;6.20;;;;;;;;;;727879;190;1055950;-65
2021/07/31 09:03:25;;;;;;;11.10;6.97;;;;;;;;;;731568;193;923584;-65
2021/07/31 09:05:51;;;;;;;8.20;6.50;;;;;;;;;;727670;190;920982;-66
2021/07/31 09:08:16;;;;;;;8.57;6.33;;;;;;;;;;730048;190;918955;-66
2021/07/31 09:10:42;;;;;;;7.90;6.70;;;;;;;;;;732738;192;918132;-66
2021/07/31 09:13:09;;;;;;;10.30;6.23;;;;;;;;;;727299;192;919694;-64
2021/07/31 09:15:36;;;;;;;7.63;5.90;;;;;;;;;;725415;192;1020422;-66
2021/07/31 09:18:18;;;;;;;7.77;5.73;;;;;;;;;;729163;192;919284;-66
2021/07/31 09:20:45;;;;;;;8.83;6.30;;;;;;;;;;727480;191;919098;-66
2021/07/31 09:23:11;;;;;;;6.80;6.00;;;;;;;;;;730809;190;918470;-66
2021/07/31 09:25:37;;;;;;;10.30;5.67;;;;;;;;;;726090;191;919472;-65
2021/07/31 09:28:06;;;;;;;5.75;4.82;;;;;;;;;;725950;191;951357;-66
2021/07/31 09:30:31;;;;;;;6.63;5.20;;;;;;;;;;729352;191;1020882;-65
2021/07/31 09:32:57;;;;;;;8.57;5.87;;;;;;;;;;726321;190;924991;-66
2021/07/31 09:35:23;;;;;;;5.78;4.60;;;;;;;;;;726010;191;918362;-66
2021/07/31 09:37:49;;;;;;;6.60;5.53;;;;;;;;;;727884;191;918795;-66
2021/07/31 09:40:17;;;;;;;7.50;5.77;;;;;;;;;;728381;192;850877;-64
2021/07/31 09:42:44;;;;;;;6.70;5.40;;;;;;;;;;725966;192;919119;-65
2021/07/31 09:45:11;;;;;;;7.97;5.83;;;;;;;;;;725348;191;918039;-64
2021/07/31 09:47:39;;;;;;;7.20;5.10;;;;;;;;;;732619;191;854488;-65
2021/07/31 09:50:05;;;;;;;7.50;4.40;;;;;;;;;;728295;191;919206;-66
2021/07/31 09:52:32;;;;;;;6.70;5.30;;;;;;;;;;726490;191;919725;-66
2021/07/31 09:54:57;;;;;;;10.80;5.20;;;;;;;;;;726573;192;919225;-65
2021/07/31 09:57:23;;;;;;;10.53;5.30;;;;;;;;;;726619;192;918683;-66
2021/07/31 09:59:50;;;;;;;6.23;5.07;;;;;;;;;;726243;191;919761;-66
2021/07/31 10:02:14;;;;;;;6.67;5.23;;;;;;;;;;727067;191;920134;-64
2021/07/31 10:04:40;;;;;;;8.23;5.37;;;;;;;;;;730622;191;920299;-65
2021/07/31 10:07:06;;;;;;;7.33;5.60;;;;;;;;;;725369;191;920267;-66
2021/07/31 10:09:32;;;;;;;7.62;5.15;;;;;;;;;;724431;191;1021542;-69
2021/07/31 10:11:58;;;;;;;6.73;4.90;;;;;;;;;;730410;191;919762;-68
2021/07/31 10:14:24;;;;;;;7.40;4.53;;;;;;;;;;727377;190;919489;-67
2021/07/31 10:16:50;;;;;;;5.55;4.95;;;;;;;;;;727233;191;1021865;-66
2021/07/31 10:19:16;;;;;;;8.40;4.53;;;;;;;;;;733039;192;919568;-65
2021/07/31 10:21:45;;;;;;;10.73;5.25;;;;;;;;;;726781;191;920148;-68
2021/07/31 10:24:11;;;;;;;5.20;4.07;;;;;;;;;;727787;191;921155;-67
2021/07/31 10:26:37;;;;;;;7.03;4.47;;;;;;;;;;726502;192;918802;-66
2021/07/31 10:29:09;;;;;;;7.37;5.60;;;;;;;;;;730208;192;919003;-67
2021/07/31 10:31:34;;;;;;;8.30;5.40;;;;;;;;;;726072;192;921677;-67
2021/07/31 10:34:00;;;;;;;5.77;5.00;;;;;;;;;;726419;191;918788;-66
2021/07/31 10:36:26;;;;;;;7.20;5.40;;;;;;;;;;727948;192;920085;-67
2021/07/31 10:38:53;;;;;;;5.50;4.70;;;;;;;;;;729474;192;921970;-66
2021/07/31 10:41:38;;;;;;;7.57;4.97;;;;;;;;;;728344;191;919534;-67
2021/07/31 10:44:09;;;;;;;6.83;4.70;;;;;;;;;;726736;192;919624;-67
2021/07/31 10:46:36;;;;;;;15.00;5.30;;;;;;;;;;726257;191;927097;-68
2021/07/31 10:49:09;;;;;;;6.30;4.90;;;;;;;;;;731662;192;919835;-68
2021/07/31 10:51:40;;;;;;;10.33;5.00;;;;;;;;;;732071;192;920015;-67
2021/07/31 10:54:06;;;;;;;8.13;4.80;;;;;;;;;;725017;193;919199;-68
2021/07/31 10:56:37;;;;;;;6.43;4.57;;;;;;;;;;726467;191;919179;-66
2021/07/31 10:59:09;;;;;;;6.23;4.83;;;;;;;;;;726345;193;921892;-68
2021/07/31 11:01:35;;;;;;;6.30;4.70;;;;;;;;;;733027;192;906602;-67
2021/07/31 11:04:02;;;;;;;8.40;5.27;;;;;;;;;;727056;191;918610;-67
2021/07/31 11:06:28;;;;;;;7.03;5.32;;;;;;;;;;725902;192;987073;-66
2021/07/31 11:09:01;;;;;;;14.93;5.17;;;;;;;;;;724613;191;918891;-66
2021/07/31 11:11:26;;;;;;;5.67;4.80;;;;;;;;;;736689;188;919444;-66
2021/07/31 11:13:52;;;;;;;6.97;4.40;;;;;;;;;;726705;191;919636;-68
2021/07/31 11:16:19;;;;;;;6.57;4.53;;;;;;;;;;724560;193;921337;-67
2021/07/31 11:18:47;;;;;;;5.47;4.20;;;;;;;;;;730592;191;919208;-67
2021/07/31 11:21:14;;;;;;;6.43;4.40;;;;;;;;;;725988;191;917960;-67
2021/07/31 11:23:40;;;;;;;7.57;4.80;;;;;;;;;;726288;191;919258;-67
2021/07/31 11:26:06;;;;;;;7.60;5.00;;;;;;;;;;725104;191;918382;-66
2021/07/31 11:28:32;;;;;;;5.10;3.90;;;;;;;;;;731777;190;920102;-67
2021/07/31 11:30:58;;;;;;;8.37;5.00;;;;;;;;;;728027;191;916431;-67
2021/07/31 11:33:24;;;;;;;16.53;5.43;;;;;;;;;;727943;191;931487;-67
2021/07/31 11:35:50;;;;;;;7.53;4.37;;;;;;;;;;733689;191;914312;-67
2021/07/31 11:38:21;;;;;;;7.97;5.13;;;;;;;;;;726872;191;920893;-69
2021/07/31 11:40:53;;;;;;;5.78;4.20;;;;;;;;;;727448;191;931835;-68
2021/07/31 11:43:20;;;;;;;5.77;4.67;;;;;;;;;;727250;190;915261;-70
2021/07/31 11:45:46;;;;;;;6.43;5.20;;;;;;;;;;732716;192;916624;-67
2021/07/31 11:48:13;;;;;;;8.53;4.73;;;;;;;;;;730343;190;617424;-69
2021/07/31 11:50:39;;;;;;;6.83;4.60;;;;;;;;;;728977;191;633223;-67
2021/07/31 11:53:10;;;;;;;5.10;3.97;;;;;;;;;;731546;190;653568;-67
2021/07/31 11:55:36;;;;;;;5.43;4.30;;;;;;;;;;734666;189;619379;-67
2021/07/31 11:58:02;;;;;;;14.63;5.00;;;;;;;;;;731942;190;635396;-67
2021/07/31 12:00:28;;;;;;;5.37;4.23;;;;;;;;;;729920;192;912964;-67
2021/07/31 12:02:54;;;;;;;8.70;4.67;;;;;;;;;;734172;192;627237;-68
2021/07/31 12:05:20;;;;;;;5.53;4.73;;;;;;;;;;729910;190;623461;-70
2021/07/31 12:07:46;;;;;;;6.17;3.80;;;;;;;;;;728927;191;627411;-67
2021/07/31 12:10:13;;;;;;;6.95;3.92;;;;;;;;;;733394;192;631229;-68
2021/07/31 12:12:38;;;;;;;4.53;3.20;;;;;;;;;;727910;193;618444;-69
2021/07/31 12:15:10;;;;;;;4.53;3.00;;;;;;;;;;729575;193;645786;-68
2021/07/31 12:17:37;;;;;;;3.83;3.27;;;;;;;;;;731938;190;638786;-69
2021/07/31 12:20:03;;;;;;;4.63;3.50;;;;;;;;;;732707;191;621554;-68
2021/07/31 12:22:29;;;;;;;5.53;3.93;;;;;;;;;;730713;190;621648;-70
2021/07/31 12:25:13;;;;;;;6.70;4.20;;;;;;;;;;731653;191;633520;-69
2021/07/31 12:27:45;;;;;;;7.40;4.70;;;;;;;;;;733198;192;642998;-66
2021/07/31 12:30:17;;;;;;;6.10;4.37;;;;;;;;;;726118;193;919790;-66
2021/07/31 12:32:43;;;;;;;5.13;4.20;;;;;;;;;;732243;193;619896;-67
2021/07/31 12:35:09;;;;;;;5.60;3.53;;;;;;;;;;723046;192;635273;-68
2021/07/31 12:37:35;;;;;;;5.43;4.50;;;;;;;;;;727650;190;625763;-67
2021/07/31 12:40:01;;;;;;;5.93;4.20;;;;;;;;;;729323;190;626789;-68
2021/07/31 12:42:27;;;;;;;5.67;4.73;;;;;;;;;;736329;192;613047;-67
2021/07/31 12:44:53;;;;;;;5.07;4.33;;;;;;;;;;733398;190;633687;-67
2021/07/31 12:47:18;;;;;;;8.77;4.90;;;;;;;;;;731451;190;630244;-69
2021/07/31 12:49:44;;;;;;;8.60;3.97;;;;;;;;;;734064;191;616782;-68
2021/07/31 12:52:10;;;;;;;8.67;4.43;;;;;;;;;;730623;191;666354;-68
2021/07/31 12:54:36;;;;;;;11.60;4.77;;;;;;;;;;731996;191;626560;-68
2021/07/31 12:57:03;;;;;;;6.70;4.23;;;;;;;;;;735170;192;625700;-70
2021/07/31 12:59:28;;;;;;;6.37;4.43;;;;;;;;;;727694;192;918739;-68
2021/07/31 13:01:53;;;;;;;6.97;4.77;;;;;;;;;;730897;191;623569;-69
2021/07/31 13:04:19;;;;;;;4.63;4.00;;;;;;;;;;729150;192;919028;-67
2021/07/31 13:06:45;;;;;;;5.77;4.90;;;;;;;;;;736639;190;634288;-68
2021/07/31 13:09:11;;;;;;;5.00;4.50;;;;;;;;;;731344;192;639711;-68
2021/07/31 13:11:37;;;;;;;7.80;4.60;;;;;;;;;;730789;190;636040;-68
2021/07/31 13:14:03;;;;;;;7.90;5.50;;;;;;;;;;735980;191;647367;-68
2021/07/31 13:16:30;;;;;;;6.97;5.27;;;;;;;;;;730149;192;628406;-68
2021/07/31 13:18:54;;;;;;;6.80;5.33;;;;;;;;;;728305;190;654840;-69
2021/07/31 13:21:20;;;;;;;8.15;5.25;;;;;;;;;;733052;193;619997;-67
2021/07/31 13:23:46;;;;;;;7.40;5.17;;;;;;;;;;730392;192;640036;-66
2021/07/31 13:26:12;;;;;;;6.70;4.90;;;;;;;;;;729131;192;693322;-66
2021/07/31 13:28:38;;;;;;;7.70;4.60;;;;;;;;;;731192;191;916126;-67
2021/07/31 13:31:04;;;;;;;7.37;5.03;;;;;;;;;;724793;192;915014;-67
2021/07/31 13:33:29;;;;;;;8.23;5.57;;;;;;;;;;726829;191;919571;-63
2021/07/31 13:35:55;;;;;;;7.83;4.83;;;;;;;;;;725458;193;926676;-66
2021/07/31 13:38:22;;;;;;;6.50;5.30;;;;;;;;;;726440;193;919173;-65
2021/07/31 13:40:50;;;;;;;8.17;4.90;;;;;;;;;;727103;191;1075017;-66
2021/07/31 13:43:18;;;;;;;11.67;5.13;;;;;;;;;;726184;192;920662;-67
2021/07/31 13:45:43;;;;;;;7.10;5.43;;;;;;;;;;730830;192;917934;-67
2021/07/31 13:48:08;;;;;;;8.67;5.57;;;;;;;;;;725801;191;1020741;-67
2021/07/31 13:50:34;;;;;;;9.32;5.60;;;;;;;;;;724916;192;1123774;-65
2021/07/31 13:53:00;;;;;;;11.20;5.00;;;;;;;;;;733311;190;918892;-65
2021/07/31 13:55:26;;;;;;;6.20;5.27;;;;;;;;;;727155;192;914700;-66
2021/07/31 13:57:52;;;;;;;9.80;5.00;;;;;;;;;;727985;190;917768;-65
2021/07/31 14:00:18;;;;;;;7.30;5.60;;;;;;;;;;726381;192;920390;-65
2021/07/31 14:02:44;;;;;;;6.80;5.13;;;;;;;;;;732728;191;949818;-68
2021/07/31 14:05:12;;;;;;;7.63;4.67;;;;;;;;;;724954;190;1017159;-66
2021/07/31 14:07:37;;;;;;;8.18;5.45;;;;;;;;;;728970;192;920036;-65
2021/07/31 14:10:03;;;;;;;6.63;5.20;;;;;;;;;;731302;191;916328;-65
2021/07/31 14:12:29;;;;;;;9.03;5.60;;;;;;;;;;727557;192;935578;-66